sensor_id;sensor_type;location;lat;lon;timestamp;P1;durP1;ratioP1;P2;durP2;ratioP2
17147;SDS011;8689;47.364;8.796;2024-02-23T09:55:28;6.57;;;5.97;;
17147;SDS011;8689;47.364;8.796;2024-02-23T10:01:37;6.93;;;5.10;;
17147;SDS011;8689;47.364;8.796;2024-02-23T10:04:07;5.20;;;4.80;;
17147;SDS011;8689;47.364;8.796;2024-02-23T10:06:37;5.47;;;5.03;;
17147;SDS011;8689;47.364;8.796;2024-02-23T10:09:19;4.70;;;4.33;;
17147;SDS011;8689;47.364;8.796;2024-02-23T10:12:04;5.47;;;5.10;;
17147;SDS011;8689;47.364;8.796;2024-02-23T10:14:32;5.37;;;4.93;;
17147;SDS011;8689;47.364;8.796;2024-02-23T10:17:06;7.30;;;4.90;;
17147;SDS011;8689;47.364;8.796;2024-02-23T10:19:48;5.17;;;4.90;;
17147;SDS011;8689;47.364;8.796;2024-02-23T10:22:15;5.23;;;4.70;;
17147;SDS011;8689;47.364;8.796;2024-02-23T10:24:42;4.67;;;4.47;;
17147;SDS011;8689;47.364;8.796;2024-02-23T10:27:11;6.03;;;5.10;;
17147;SDS011;8689;47.364;8.796;2024-02-23T10:29:41;5.47;;;4.93;;
17147;SDS011;8689;47.364;8.796;2024-02-23T10:32:09;5.73;;;5.23;;
17147;SDS011;8689;47.364;8.796;2024-02-23T10:34:47;4.57;;;4.27;;
17147;SDS011;8689;47.364;8.796;2024-02-23T10:37:21;8.13;;;4.03;;
17147;SDS011;8689;47.364;8.796;2024-02-23T10:47:19;6.03;;;5.43;;
17147;SDS011;8689;47.364;8.796;2024-02-23T10:49:50;5.27;;;4.90;;
17147;SDS011;8689;47.364;8.796;2024-02-23T10:52:18;4.90;;;4.63;;
17147;SDS011;8689;47.364;8.796;2024-02-23T10:54:49;5.07;;;4.37;;
17147;SDS011;8689;47.364;8.796;2024-02-23T10:57:20;6.87;;;4.80;;
17147;SDS011;8689;47.364;8.796;2024-02-23T10:59:48;5.40;;;4.90;;
17147;SDS011;8689;47.364;8.796;2024-02-23T11:02:17;5.23;;;4.83;;
17147;SDS011;8689;47.364;8.796;2024-02-23T11:04:57;5.80;;;5.33;;
17147;SDS011;8689;47.364;8.796;2024-02-23T11:07:29;4.80;;;4.50;;
17147;SDS011;8689;47.364;8.796;2024-02-23T11:10:14;7.73;;;5.37;;
17147;SDS011;8689;47.364;8.796;2024-02-23T11:12:42;5.40;;;5.00;;
17147;SDS011;8689;47.364;8.796;2024-02-23T11:15:16;4.53;;;4.30;;
17147;SDS011;8689;47.364;8.796;2024-02-23T11:18:01;5.00;;;4.53;;
17147;SDS011;8689;47.364;8.796;2024-02-23T11:20:38;4.57;;;4.27;;
17147;SDS011;8689;47.364;8.796;2024-02-23T11:23:14;4.93;;;4.53;;
17147;SDS011;8689;47.364;8.796;2024-02-23T11:25:58;3.83;;;3.63;;
17147;SDS011;8689;47.364;8.796;2024-02-23T11:28:27;4.37;;;4.17;;
17147;SDS011;8689;47.364;8.796;2024-02-23T11:30:57;4.67;;;4.37;;
17147;SDS011;8689;47.364;8.796;2024-02-23T11:33:29;4.60;;;4.20;;
17147;SDS011;8689;47.364;8.796;2024-02-23T11:36:07;4.87;;;4.57;;
17147;SDS011;8689;47.364;8.796;2024-02-23T11:38:47;6.27;;;4.53;;
17147;SDS011;8689;47.364;8.796;2024-02-23T11:43:01;5.00;;;4.60;;
17147;SDS011;8689;47.364;8.796;2024-02-23T12:02:14;4.00;;;3.80;;
17147;SDS011;8689;47.364;8.796;2024-02-23T12:05:10;4.67;;;4.47;;
17147;SDS011;8689;47.364;8.796;2024-02-23T12:08:17;6.13;;;4.40;;
17147;SDS011;8689;47.364;8.796;2024-02-23T12:14:27;4.87;;;4.37;;
17147;SDS011;8689;47.364;8.796;2024-02-23T12:17:16;3.80;;;3.50;;
17147;SDS011;8689;47.364;8.796;2024-02-23T12:20:16;4.13;;;3.80;;
17147;SDS011;8689;47.364;8.796;2024-02-23T12:23:05;4.10;;;3.80;;
17147;SDS011;8689;47.364;8.796;2024-02-23T12:25:59;2.83;;;2.63;;
17147;SDS011;8689;47.364;8.796;2024-02-23T12:29:02;4.93;;;3.23;;
17147;SDS011;8689;47.364;8.796;2024-02-23T12:32:01;3.50;;;3.30;;
17147;SDS011;8689;47.364;8.796;2024-02-23T12:35:07;4.53;;;3.50;;
17147;SDS011;8689;47.364;8.796;2024-02-23T12:37:37;3.60;;;3.40;;
17147;SDS011;8689;47.364;8.796;2024-02-23T12:40:05;3.03;;;2.83;;
17147;SDS011;8689;47.364;8.796;2024-02-23T12:42:34;3.33;;;3.13;;
17147;SDS011;8689;47.364;8.796;2024-02-23T12:45:01;4.97;;;3.20;;
17147;SDS011;8689;47.364;8.796;2024-02-23T12:47:31;4.13;;;3.80;;
17147;SDS011;8689;47.364;8.796;2024-02-23T12:50:05;4.20;;;3.90;;
17147;SDS011;8689;47.364;8.796;2024-02-23T12:52:37;4.43;;;3.63;;
17147;SDS011;8689;47.364;8.796;2024-02-23T12:55:04;3.70;;;3.30;;
17147;SDS011;8689;47.364;8.796;2024-02-23T12:57:32;3.50;;;3.30;;
17147;SDS011;8689;47.364;8.796;2024-02-23T12:59:59;4.33;;;3.50;;
17147;SDS011;8689;47.364;8.796;2024-02-23T13:02:27;4.00;;;3.70;;
17147;SDS011;8689;47.364;8.796;2024-02-23T13:04:55;3.50;;;3.20;;
17147;SDS011;8689;47.364;8.796;2024-02-23T13:07:24;3.77;;;3.50;;
17147;SDS011;8689;47.364;8.796;2024-02-23T13:09:51;3.63;;;3.33;;
17147;SDS011;8689;47.364;8.796;2024-02-23T13:18:48;3.97;;;3.70;;
17147;SDS011;8689;47.364;8.796;2024-02-23T13:21:33;4.27;;;3.60;;
17147;SDS011;8689;47.364;8.796;2024-02-23T13:24:14;4.63;;;4.33;;
17147;SDS011;8689;47.364;8.796;2024-02-23T13:26:58;3.67;;;3.47;;
17147;SDS011;8689;47.364;8.796;2024-02-23T13:39:04;4.03;;;3.73;;
17147;SDS011;8689;47.364;8.796;2024-02-23T13:41:38;3.17;;;2.97;;
17147;SDS011;8689;47.364;8.796;2024-02-23T13:44:13;2.83;;;2.73;;
17147;SDS011;8689;47.364;8.796;2024-02-23T13:46:41;3.33;;;3.03;;
17147;SDS011;8689;47.364;8.796;2024-02-23T13:49:08;2.90;;;2.80;;
17147;SDS011;8689;47.364;8.796;2024-02-23T13:51:43;3.00;;;2.80;;
17147;SDS011;8689;47.364;8.796;2024-02-23T13:54:49;3.03;;;2.83;;
17147;SDS011;8689;47.364;8.796;2024-02-23T13:57:18;4.07;;;3.63;;
17147;SDS011;8689;47.364;8.796;2024-02-23T13:59:45;3.70;;;3.50;;
17147;SDS011;8689;47.364;8.796;2024-02-23T14:02:12;3.40;;;3.17;;
17147;SDS011;8689;47.364;8.796;2024-02-23T14:07:29;3.90;;;3.60;;
17147;SDS011;8689;47.364;8.796;2024-02-23T14:09:57;3.60;;;3.37;;
17147;SDS011;8689;47.364;8.796;2024-02-23T14:12:26;4.10;;;3.73;;
17147;SDS011;8689;47.364;8.796;2024-02-23T14:14:53;4.37;;;4.10;;
17147;SDS011;8689;47.364;8.796;2024-02-23T14:17:38;4.23;;;3.17;;
17147;SDS011;8689;47.364;8.796;2024-02-23T14:20:15;3.47;;;3.27;;
17147;SDS011;8689;47.364;8.796;2024-02-23T14:23:16;3.80;;;3.60;;
17147;SDS011;8689;47.364;8.796;2024-02-23T14:26:11;3.27;;;3.07;;
17147;SDS011;8689;47.364;8.796;2024-02-23T14:44:39;4.03;;;3.83;;
17147;SDS011;8689;47.364;8.796;2024-02-23T14:50:50;4.80;;;4.53;;
17147;SDS011;8689;47.364;8.796;2024-02-23T14:54:21;4.33;;;4.13;;
17147;SDS011;8689;47.364;8.796;2024-02-23T14:57:19;4.43;;;4.17;;
17147;SDS011;8689;47.364;8.796;2024-02-23T14:59:54;4.80;;;4.60;;
17147;SDS011;8689;47.364;8.796;2024-02-23T15:02:38;4.73;;;4.43;;
17147;SDS011;8689;47.364;8.796;2024-02-23T15:05:16;5.13;;;4.03;;
17147;SDS011;8689;47.364;8.796;2024-02-23T15:11:02;4.23;;;3.83;;
17147;SDS011;8689;47.364;8.796;2024-02-23T15:13:58;5.13;;;4.83;;
17147;SDS011;8689;47.364;8.796;2024-02-23T15:16:49;4.30;;;4.00;;
17147;SDS011;8689;47.364;8.796;2024-02-23T15:19:31;3.70;;;3.40;;
17147;SDS011;8689;47.364;8.796;2024-02-23T15:22:35;5.33;;;4.50;;
17147;SDS011;8689;47.364;8.796;2024-02-23T15:25:18;4.63;;;4.43;;
17147;SDS011;8689;47.364;8.796;2024-02-23T15:28:14;4.80;;;4.40;;
17147;SDS011;8689;47.364;8.796;2024-02-23T15:31:12;4.67;;;4.47;;
17147;SDS011;8689;47.364;8.796;2024-02-23T15:33:50;5.00;;;4.70;;
17147;SDS011;8689;47.364;8.796;2024-02-23T15:36:27;4.50;;;4.30;;
17147;SDS011;8689;47.364;8.796;2024-02-23T15:45:35;4.93;;;4.37;;
17147;SDS011;8689;47.364;8.796;2024-02-23T15:54:45;3.97;;;3.77;;
17147;SDS011;8689;47.364;8.796;2024-02-23T15:57:50;4.60;;;4.30;;
17147;SDS011;8689;47.364;8.796;2024-02-23T16:00:26;4.33;;;4.00;;
17147;SDS011;8689;47.364;8.796;2024-02-23T16:06:59;5.13;;;4.43;;
17147;SDS011;8689;47.364;8.796;2024-02-23T16:09:51;4.77;;;4.57;;
17147;SDS011;8689;47.364;8.796;2024-02-23T16:13:23;5.63;;;5.30;;
17147;SDS011;8689;47.364;8.796;2024-02-23T16:15:59;8.27;;;5.07;;
17147;SDS011;8689;47.364;8.796;2024-02-23T16:18:36;5.90;;;5.60;;
17147;SDS011;8689;47.364;8.796;2024-02-23T16:21:04;5.97;;;5.57;;
17147;SDS011;8689;47.364;8.796;2024-02-23T16:26:23;4.63;;;4.43;;
17147;SDS011;8689;47.364;8.796;2024-02-23T16:29:01;5.03;;;4.73;;
17147;SDS011;8689;47.364;8.796;2024-02-23T16:31:37;5.63;;;5.27;;
17147;SDS011;8689;47.364;8.796;2024-02-23T16:37:46;5.87;;;5.37;;
17147;SDS011;8689;47.364;8.796;2024-02-23T16:54:04;5.47;;;5.17;;
17147;SDS011;8689;47.364;8.796;2024-02-23T16:56:44;7.43;;;5.43;;
17147;SDS011;8689;47.364;8.796;2024-02-23T16:59:18;4.63;;;4.33;;
17147;SDS011;8689;47.364;8.796;2024-02-23T17:01:54;5.17;;;4.87;;
17147;SDS011;8689;47.364;8.796;2024-02-23T17:04:23;5.07;;;4.83;;
17147;SDS011;8689;47.364;8.796;2024-02-23T17:07:01;5.10;;;4.80;;
17147;SDS011;8689;47.364;8.796;2024-02-23T17:13:14;5.37;;;5.07;;
17147;SDS011;8689;47.364;8.796;2024-02-23T17:15:49;4.90;;;4.70;;
17147;SDS011;8689;47.364;8.796;2024-02-23T17:38:28;5.37;;;4.93;;
17147;SDS011;8689;47.364;8.796;2024-02-23T17:41:07;6.53;;;5.93;;
17147;SDS011;8689;47.364;8.796;2024-02-23T17:44:05;5.47;;;5.07;;
17147;SDS011;8689;47.364;8.796;2024-02-23T17:50:40;6.23;;;5.83;;
17147;SDS011;8689;47.364;8.796;2024-02-23T18:00:05;6.80;;;5.87;;
17147;SDS011;8689;47.364;8.796;2024-02-23T18:30:22;7.40;;;6.90;;
17147;SDS011;8689;47.364;8.796;2024-02-23T18:32:50;7.47;;;6.87;;
17147;SDS011;8689;47.364;8.796;2024-02-23T18:35:17;7.37;;;6.67;;
17147;SDS011;8689;47.364;8.796;2024-02-23T18:37:45;6.93;;;6.53;;
17147;SDS011;8689;47.364;8.796;2024-02-23T18:40:13;9.63;;;8.10;;
17147;SDS011;8689;47.364;8.796;2024-02-23T18:42:47;7.37;;;6.90;;
17147;SDS011;8689;47.364;8.796;2024-02-23T18:45:21;7.13;;;6.53;;
17147;SDS011;8689;47.364;8.796;2024-02-23T18:47:50;6.47;;;6.07;;
17147;SDS011;8689;47.364;8.796;2024-02-23T18:50:18;6.83;;;6.40;;
17147;SDS011;8689;47.364;8.796;2024-02-23T18:52:45;7.07;;;6.57;;
17147;SDS011;8689;47.364;8.796;2024-02-23T18:55:24;7.57;;;7.07;;
17147;SDS011;8689;47.364;8.796;2024-02-23T18:58:03;7.67;;;7.17;;
17147;SDS011;8689;47.364;8.796;2024-02-23T19:11:07;8.23;;;7.57;;
17147;SDS011;8689;47.364;8.796;2024-02-23T19:13:41;8.47;;;7.77;;
17147;SDS011;8689;47.364;8.796;2024-02-23T19:16:11;7.70;;;7.20;;
17147;SDS011;8689;47.364;8.796;2024-02-23T19:18:48;7.73;;;7.07;;
17147;SDS011;8689;47.364;8.796;2024-02-23T19:21:18;6.93;;;6.53;;
17147;SDS011;8689;47.364;8.796;2024-02-23T19:24:38;7.47;;;6.97;;
17147;SDS011;8689;47.364;8.796;2024-02-23T20:33:30;6.20;;;6.00;;
17147;SDS011;8689;47.364;8.796;2024-02-23T20:39:29;6.80;;;6.50;;
17147;SDS011;8689;47.364;8.796;2024-02-23T23:53:14;5.90;;;5.63;;
